createdAt,value
2023-03-03T00:00:51.413Z,53.43
2023-03-03T00:03:26.060Z,60.53
2023-03-03T00:05:58.995Z,57.33
2023-03-03T00:08:32.538Z,54.23
2023-03-03T00:11:06.163Z,55.67
2023-03-03T00:13:48.015Z,53.10
2023-03-03T00:16:23.271Z,51.23
2023-03-03T00:18:56.116Z,49.30
2023-03-03T00:21:29.619Z,50.97
2023-03-03T00:24:21.062Z,65.10
2023-03-03T00:26:57.169Z,53.87
2023-03-03T00:29:40.580Z,53.23
2023-03-03T00:32:15.111Z,51.90
2023-03-03T00:34:47.371Z,61.33
2023-03-03T00:37:34.535Z,60.73
2023-03-03T00:40:12.155Z,58.70
2023-03-03T00:42:50.072Z,58.80
2023-03-03T00:45:29.905Z,59.20
2023-03-03T00:48:30.041Z,63.00
2023-03-03T00:51:06.588Z,62.53
2023-03-03T00:53:38.361Z,53.43
2023-03-03T00:56:10.099Z,54.13
2023-03-03T00:58:41.896Z,57.70
2023-03-03T01:01:14.824Z,51.07
2023-03-03T01:03:46.614Z,51.57
2023-03-03T01:06:18.398Z,62.40
2023-03-03T01:08:50.333Z,58.30
2023-03-03T01:11:24.846Z,66.30
2023-03-03T01:13:57.046Z,61.60
2023-03-03T01:16:29.143Z,58.13
2023-03-03T01:19:00.956Z,57.57
2023-03-03T01:21:32.632Z,57.60
2023-03-03T01:24:04.471Z,65.25
2023-03-03T01:26:36.147Z,62.20
2023-03-03T01:29:07.901Z,56.90
2023-03-03T01:31:40.405Z,61.87
2023-03-03T01:34:12.262Z,60.67
2023-03-03T01:36:44.044Z,53.77
2023-03-03T01:39:15.757Z,56.83
2023-03-03T01:41:47.594Z,57.70
2023-03-03T01:44:19.423Z,58.73
2023-03-03T01:47:35.612Z,56.63
2023-03-03T01:50:14.084Z,60.33
2023-03-03T01:52:47.333Z,57.33
2023-03-03T01:55:34.195Z,65.03
2023-03-03T01:58:17.794Z,52.60
2023-03-03T02:00:53.426Z,59.37
2023-03-03T02:03:25.420Z,62.23
2023-03-03T02:06:03.117Z,62.73
2023-03-03T02:08:54.269Z,55.60
2023-03-03T02:11:27.540Z,62.23
2023-03-03T02:13:59.343Z,63.20
2023-03-03T02:16:31.434Z,65.33
2023-03-03T02:19:07.954Z,65.10
2023-03-03T02:21:39.662Z,70.97
2023-03-03T02:24:20.392Z,61.57
2023-03-03T02:26:52.462Z,57.60
2023-03-03T02:29:24.236Z,71.70
2023-03-03T02:31:56.063Z,61.77
2023-03-03T02:34:27.897Z,65.00
2023-03-03T02:36:59.553Z,66.70
2023-03-03T02:39:31.248Z,71.88
2023-03-03T02:42:21.632Z,70.43
2023-03-03T02:44:54.132Z,71.67
2023-03-03T02:47:25.842Z,66.47
2023-03-03T02:49:57.509Z,59.53
2023-03-03T02:52:29.192Z,65.67
2023-03-03T02:55:00.923Z,61.80
2023-03-03T02:57:32.605Z,65.27
2023-03-03T03:00:05.377Z,72.50
2023-03-03T03:02:37.159Z,67.17
2023-03-03T03:05:09.054Z,65.20
2023-03-03T03:07:41.862Z,68.83
2023-03-03T03:10:13.697Z,58.40
2023-03-03T03:12:45.546Z,58.70
2023-03-03T03:15:17.237Z,63.00
2023-03-03T03:17:48.945Z,67.03
2023-03-03T03:20:20.689Z,69.27
2023-03-03T03:22:52.610Z,71.67
2023-03-03T03:25:24.311Z,64.60
2023-03-03T03:27:55.988Z,63.93
2023-03-03T03:30:27.801Z,66.30
2023-03-03T03:32:59.627Z,63.90
2023-03-03T03:35:33.582Z,72.03
2023-03-03T03:38:05.382Z,73.33
2023-03-03T03:40:37.074Z,66.10
2023-03-03T03:43:09.180Z,74.07
2023-03-03T03:45:43.601Z,74.27
2023-03-03T03:48:16.785Z,70.17
2023-03-03T03:50:49.473Z,61.33
2023-03-03T03:53:21.175Z,66.50
2023-03-03T03:55:52.970Z,70.57
2023-03-03T03:58:24.843Z,67.20
2023-03-03T04:01:05.684Z,60.50
2023-03-03T04:03:37.527Z,64.20
2023-03-03T04:06:09.284Z,69.93
2023-03-03T04:08:41.062Z,72.55
2023-03-03T04:11:12.891Z,76.10
2023-03-03T04:13:44.598Z,67.77
2023-03-03T04:16:16.424Z,52.03
2023-03-03T04:18:48.095Z,60.03
2023-03-03T04:21:20.371Z,66.67
2023-03-03T04:23:53.351Z,69.57
2023-03-03T04:26:25.281Z,55.77
2023-03-03T04:28:57.120Z,61.10
2023-03-03T04:31:28.956Z,66.20
2023-03-03T04:34:00.730Z,68.97
2023-03-03T04:36:32.483Z,64.60
2023-03-03T04:39:04.335Z,66.20
2023-03-03T04:41:36.081Z,65.03
2023-03-03T04:44:07.829Z,64.30
2023-03-03T04:46:39.550Z,64.37
2023-03-03T04:49:12.611Z,55.87
2023-03-03T04:51:44.447Z,69.03
2023-03-03T04:54:16.127Z,66.63
2023-03-03T04:56:47.846Z,54.83
2023-03-03T04:59:19.561Z,68.50
2023-03-03T05:01:51.409Z,62.93
2023-03-03T05:04:23.167Z,57.63
2023-03-03T05:06:54.905Z,63.93
2023-03-03T05:09:26.619Z,52.63
2023-03-03T05:11:58.406Z,65.70
2023-03-03T05:14:31.428Z,63.93
2023-03-03T05:17:04.645Z,58.13
2023-03-03T05:19:36.470Z,61.97
2023-03-03T05:22:08.296Z,59.07
2023-03-03T05:24:40.013Z,61.43
2023-03-03T05:27:11.905Z,57.87
2023-03-03T05:29:43.751Z,60.57
2023-03-03T05:32:15.812Z,68.83
2023-03-03T05:34:47.668Z,57.83
2023-03-03T05:37:19.419Z,68.00
2023-03-03T05:39:51.310Z,66.13
2023-03-03T05:42:23.080Z,64.33
2023-03-03T05:44:54.903Z,61.30
2023-03-03T05:47:26.681Z,65.20
2023-03-03T05:49:58.357Z,58.40
2023-03-03T05:52:30.252Z,60.73
2023-03-03T05:55:01.932Z,64.13
2023-03-03T05:57:33.887Z,59.77
2023-03-03T06:00:06.448Z,67.72
2023-03-03T06:02:38.153Z,67.00
2023-03-03T06:05:10.431Z,57.87
2023-03-03T06:07:42.421Z,61.23
2023-03-03T06:10:14.243Z,55.60
2023-03-03T06:12:46.010Z,58.00
2023-03-03T06:15:18.312Z,64.83
2023-03-03T06:17:50.258Z,59.77
2023-03-03T06:20:21.982Z,63.40
2023-03-03T06:22:53.725Z,60.77
2023-03-03T06:25:25.553Z,76.53
2023-03-03T06:27:58.060Z,59.60
2023-03-03T06:30:30.708Z,65.60
2023-03-03T06:33:02.444Z,57.43
2023-03-03T06:35:34.149Z,58.10
2023-03-03T06:38:05.988Z,61.80
2023-03-03T06:40:37.706Z,60.20
2023-03-03T06:43:09.926Z,55.80
2023-03-03T06:45:41.786Z,59.73
2023-03-03T06:48:13.513Z,57.20
2023-03-03T06:50:45.205Z,56.63
2023-03-03T06:53:18.886Z,59.60
2023-03-03T06:55:50.620Z,67.13
2023-03-03T06:58:24.522Z,66.33
2023-03-03T07:01:00.978Z,58.97
2023-03-03T07:03:36.201Z,65.93
2023-03-03T07:06:34.065Z,72.83
2023-03-03T07:09:13.237Z,59.57
2023-03-03T07:11:46.579Z,59.57
2023-03-03T07:14:20.172Z,89.57
2023-03-03T07:17:00.202Z,88.17
2023-03-03T07:19:35.591Z,73.73
2023-03-03T07:22:18.981Z,70.83
2023-03-03T07:25:01.976Z,60.77
2023-03-03T07:27:34.326Z,67.67
2023-03-03T07:30:12.141Z,69.53
2023-03-03T07:32:46.810Z,123.33
2023-03-03T07:35:38.838Z,88.73
2023-03-03T07:38:44.005Z,63.87
2023-03-03T07:41:23.471Z,63.00
2023-03-03T07:44:05.330Z,63.73
2023-03-03T07:46:44.631Z,66.70
2023-03-03T07:49:23.941Z,60.28
2023-03-03T07:51:57.837Z,63.43
2023-03-03T07:54:36.317Z,61.80
2023-03-03T07:57:27.509Z,56.43
2023-03-03T08:00:16.654Z,72.77
2023-03-03T08:03:03.087Z,63.60
2023-03-03T08:05:46.940Z,65.07
2023-03-03T08:08:31.095Z,72.00
2023-03-03T08:11:04.417Z,68.90
2023-03-03T08:13:38.072Z,64.73
2023-03-03T08:16:09.898Z,68.82
2023-03-03T08:18:48.320Z,69.83
2023-03-03T08:21:22.478Z,58.77
2023-03-03T08:23:54.365Z,62.73
2023-03-03T08:26:27.259Z,50.70
2023-03-03T08:28:58.944Z,55.40
2023-03-03T08:31:40.798Z,46.57
2023-03-03T08:34:13.491Z,58.17
2023-03-03T08:36:47.377Z,75.40
2023-03-03T08:39:19.130Z,49.80
2023-03-03T08:41:50.834Z,59.55
2023-03-03T08:44:22.555Z,58.03
2023-03-03T08:46:54.247Z,57.80
2023-03-03T08:49:25.964Z,59.67
2023-03-03T08:51:58.013Z,59.17
2023-03-03T08:54:30.028Z,54.17
2023-03-03T08:57:01.704Z,53.57
2023-03-03T08:59:37.761Z,62.17
2023-03-03T09:02:09.525Z,160.97
2023-03-03T09:04:41.313Z,59.20
2023-03-03T09:07:13.028Z,64.90
2023-03-03T09:09:45.269Z,61.95
2023-03-03T09:12:27.642Z,63.57
2023-03-03T09:15:07.769Z,58.37
2023-03-03T09:17:39.559Z,53.30
2023-03-03T09:20:32.607Z,65.63
2023-03-03T09:23:22.674Z,61.13
2023-03-03T09:25:54.494Z,54.13
2023-03-03T09:28:30.539Z,66.07
2023-03-03T09:31:07.404Z,76.27
2023-03-03T09:33:45.471Z,56.30
2023-03-03T09:36:29.423Z,55.70
2023-03-03T09:39:10.367Z,65.07
2023-03-03T09:41:57.264Z,55.30
2023-03-03T09:44:53.489Z,49.17
2023-03-03T09:47:33.227Z,52.57
2023-03-03T09:50:23.978Z,52.40
2023-03-03T09:53:17.242Z,48.27
2023-03-03T09:56:18.604Z,55.43
2023-03-03T09:59:05.025Z,58.30
2023-03-03T10:01:48.676Z,55.83
2023-03-03T10:04:59.745Z,54.37
2023-03-03T10:07:51.623Z,52.37
2023-03-03T10:10:51.324Z,52.83
2023-03-03T10:13:35.031Z,55.57
2023-03-03T10:16:50.580Z,46.03
2023-03-03T10:19:39.003Z,58.27
2023-03-03T10:22:40.636Z,48.37
2023-03-03T10:25:16.714Z,44.77
2023-03-03T10:28:18.672Z,45.63
2023-03-03T10:31:17.656Z,52.80
2023-03-03T10:34:04.843Z,53.85
2023-03-03T10:37:05.476Z,54.60
2023-03-03T10:40:14.908Z,44.50
2023-03-03T10:43:26.094Z,57.67
2023-03-03T10:46:10.759Z,48.20
2023-03-03T10:48:56.426Z,46.17
2023-03-03T10:51:39.569Z,45.53
2023-03-03T10:54:38.166Z,46.57
2023-03-03T10:57:40.748Z,48.77
2023-03-03T11:00:24.347Z,47.27
2023-03-03T11:03:26.397Z,50.20
2023-03-03T11:06:17.299Z,45.00
2023-03-03T11:08:57.888Z,43.80
2023-03-03T11:11:48.622Z,51.00
2023-03-03T11:14:24.412Z,41.07
2023-03-03T11:17:34.147Z,45.47
2023-03-03T11:20:37.347Z,45.67
2023-03-03T11:23:08.972Z,38.53
2023-03-03T11:25:58.717Z,39.60
2023-03-03T11:28:44.878Z,48.10
2023-03-03T11:31:32.143Z,47.43
2023-03-03T11:34:41.586Z,43.50
2023-03-03T11:37:27.376Z,43.50
2023-03-03T11:40:09.779Z,44.13
2023-03-03T11:42:54.512Z,45.63
2023-03-03T11:45:56.325Z,41.73
2023-03-03T11:48:56.576Z,43.17
2023-03-03T11:51:39.173Z,41.10
2023-03-03T11:54:25.085Z,42.13
2023-03-03T11:57:32.887Z,41.90
2023-03-03T12:01:03.997Z,41.83
2023-03-03T12:03:49.220Z,45.33
2023-03-03T12:06:40.626Z,44.73
2023-03-03T12:09:35.444Z,46.17
2023-03-03T12:12:10.805Z,50.90
2023-03-03T12:14:57.764Z,46.47
2023-03-03T12:17:50.506Z,44.17
2023-03-03T12:20:25.724Z,41.47
2023-03-03T12:23:15.892Z,49.23
2023-03-03T12:26:08.589Z,47.77
2023-03-03T12:28:59.669Z,41.72
2023-03-03T12:31:39.171Z,49.83
2023-03-03T12:34:28.858Z,42.90
2023-03-03T12:37:38.880Z,50.90
2023-03-03T12:40:20.346Z,47.13
2023-03-03T12:43:16.515Z,46.22
2023-03-03T12:45:58.655Z,55.13
2023-03-03T12:48:46.410Z,45.63
2023-03-03T12:51:26.502Z,52.67
2023-03-03T12:54:13.554Z,43.87
2023-03-03T12:56:54.132Z,39.60
2023-03-03T13:00:09.621Z,47.17
2023-03-03T13:02:58.554Z,42.90
2023-03-03T13:05:48.601Z,53.23
2023-03-03T13:08:20.390Z,46.27
2023-03-03T13:11:09.610Z,44.97
2023-03-03T13:13:48.372Z,41.30
2023-03-03T13:16:41.460Z,45.42
2023-03-03T13:19:26.873Z,46.80
2023-03-03T13:22:49.953Z,41.70
2023-03-03T13:25:31.500Z,47.37
2023-03-03T13:28:12.844Z,42.23
2023-03-03T13:30:49.930Z,45.70
2023-03-03T13:33:32.461Z,39.07
2023-03-03T13:36:13.518Z,38.50
2023-03-03T13:38:52.131Z,44.13
2023-03-03T13:41:49.229Z,48.47
2023-03-03T13:44:27.372Z,44.20
2023-03-03T13:47:23.413Z,48.30
2023-03-03T13:50:04.707Z,38.37
2023-03-03T13:53:04.093Z,41.27
2023-03-03T13:55:53.490Z,44.30
2023-03-03T13:59:10.460Z,35.53
2023-03-03T14:02:32.772Z,43.50
2023-03-03T14:05:34.362Z,47.03
2023-03-03T14:08:36.486Z,42.93
2023-03-03T14:11:19.860Z,39.37
2023-03-03T14:14:16.252Z,50.38
2023-03-03T14:17:06.150Z,47.80
2023-03-03T14:19:48.804Z,37.97
2023-03-03T14:22:32.430Z,38.97
2023-03-03T14:25:10.009Z,43.90
2023-03-03T14:28:13.935Z,45.23
2023-03-03T14:30:45.704Z,39.70
2023-03-03T14:33:21.463Z,44.03
2023-03-03T14:36:03.951Z,48.20
2023-03-03T14:38:41.231Z,47.17
2023-03-03T14:41:14.778Z,41.70
2023-03-03T14:44:00.605Z,46.60
2023-03-03T14:46:39.620Z,45.70
2023-03-03T14:49:31.827Z,49.87
2023-03-03T14:52:15.573Z,47.63
2023-03-03T14:54:52.957Z,44.80
2023-03-03T14:57:51.265Z,43.43
2023-03-03T15:00:22.943Z,46.70
2023-03-03T15:03:27.253Z,46.23
2023-03-03T15:05:59.075Z,42.40
2023-03-03T15:08:35.575Z,43.63
2023-03-03T15:11:13.344Z,39.57
2023-03-03T15:13:45.748Z,49.23
2023-03-03T15:16:25.176Z,48.97
2023-03-03T15:19:08.820Z,48.80
2023-03-03T15:21:55.323Z,44.63
2023-03-03T15:24:50.513Z,43.53
2023-03-03T15:27:35.451Z,46.25
2023-03-03T15:30:24.963Z,44.07
2023-03-03T15:33:29.314Z,48.80
2023-03-03T15:36:44.060Z,39.50
2023-03-03T15:40:07.098Z,41.93
2023-03-03T15:42:41.847Z,38.17
2023-03-03T15:45:19.582Z,43.90
2023-03-03T15:48:22.756Z,48.70
2023-03-03T15:51:16.148Z,47.27
2023-03-03T15:54:15.077Z,52.97
2023-03-03T15:56:50.794Z,39.70
2023-03-03T15:59:34.296Z,46.17
2023-03-03T16:02:33.205Z,39.37
2023-03-03T16:05:15.125Z,46.70
2023-03-03T16:07:53.241Z,36.97
2023-03-03T16:10:53.068Z,40.70
2023-03-03T16:13:59.466Z,45.53
2023-03-03T16:16:48.965Z,39.97
2023-03-03T16:19:38.699Z,44.57
2023-03-03T16:22:16.121Z,48.20
2023-03-03T16:25:06.681Z,46.57
2023-03-03T16:27:51.963Z,56.03
2023-03-03T16:30:34.931Z,44.23
2023-03-03T16:33:19.361Z,36.33
2023-03-03T16:36:03.536Z,49.97
2023-03-03T16:38:40.306Z,43.77
2023-03-03T16:41:17.555Z,41.50
2023-03-03T16:44:13.657Z,41.60
2023-03-03T16:46:49.250Z,46.23
2023-03-03T16:49:45.672Z,40.67
2023-03-03T16:52:24.238Z,41.80
2023-03-03T16:55:07.782Z,39.13
2023-03-03T16:57:53.275Z,38.03
2023-03-03T17:00:38.108Z,48.30
2023-03-03T17:03:32.724Z,48.00
2023-03-03T17:06:13.477Z,44.70
2023-03-03T17:09:30.114Z,40.53
2023-03-03T17:12:09.557Z,38.67
2023-03-03T17:14:49.742Z,39.83
2023-03-03T17:17:32.015Z,43.70
2023-03-03T17:20:35.554Z,45.35
2023-03-03T17:23:17.477Z,46.67
2023-03-03T17:26:03.336Z,40.47
2023-03-03T17:29:01.309Z,45.40
2023-03-03T17:32:04.003Z,45.97
2023-03-03T17:34:42.593Z,49.80
2023-03-03T17:37:31.496Z,46.43
2023-03-03T17:40:16.727Z,44.23
2023-03-03T17:43:15.034Z,48.17
2023-03-03T17:45:49.842Z,43.70
2023-03-03T17:48:51.640Z,46.07
2023-03-03T17:51:46.690Z,46.57
2023-03-03T17:54:36.845Z,47.30
2023-03-03T17:57:32.374Z,45.17
2023-03-03T18:00:07.242Z,45.30
2023-03-03T18:02:57.849Z,44.83
2023-03-03T18:06:00.136Z,45.10
2023-03-03T18:08:50.542Z,49.90
2023-03-03T18:11:25.091Z,48.17
2023-03-03T18:14:07.049Z,51.37
2023-03-03T18:17:40.062Z,48.10
2023-03-03T18:20:24.060Z,48.27
2023-03-03T18:22:56.115Z,57.20
2023-03-03T18:25:59.934Z,46.70
2023-03-03T18:28:49.903Z,52.10
2023-03-03T18:31:26.924Z,55.57
2023-03-03T18:34:20.384Z,47.93
2023-03-03T18:36:55.888Z,48.80
2023-03-03T18:39:41.262Z,52.93
2023-03-03T18:42:39.676Z,51.80
2023-03-03T18:45:11.295Z,49.60
2023-03-03T18:48:15.322Z,42.97
2023-03-03T18:50:49.796Z,48.73
2023-03-03T18:53:34.531Z,53.13
2023-03-03T18:56:11.236Z,52.93
2023-03-03T18:58:43.521Z,47.90
2023-03-03T19:01:41.538Z,54.77
2023-03-03T19:04:18.556Z,58.73
2023-03-03T19:06:51.373Z,56.70
2023-03-03T19:09:44.701Z,59.17
2023-03-03T19:16:03.625Z,61.23
2023-03-03T19:18:36.411Z,56.85
2023-03-03T19:21:11.205Z,57.33
2023-03-03T19:24:00.482Z,58.87
2023-03-03T19:27:07.917Z,57.17
2023-03-03T19:29:45.174Z,57.60
2023-03-03T19:32:55.566Z,61.33
2023-03-03T19:35:59.232Z,51.70
2023-03-03T19:38:33.840Z,49.97
2023-03-03T19:41:46.262Z,60.80
2023-03-03T19:44:42.248Z,67.10
2023-03-03T19:47:48.160Z,60.40
2023-03-03T19:50:41.392Z,60.47
2023-03-03T19:53:30.789Z,57.13
2023-03-03T19:56:46.895Z,62.97
2023-03-03T19:59:21.327Z,68.43
2023-03-03T20:02:01.995Z,56.93
2023-03-03T20:04:53.263Z,68.03
2023-03-03T20:07:45.975Z,54.63
2023-03-03T20:10:41.829Z,70.50
2023-03-03T20:13:25.664Z,60.93
2023-03-03T20:16:16.231Z,68.50
2023-03-03T20:19:00.766Z,61.97
2023-03-03T20:21:34.089Z,68.77
2023-03-03T20:24:27.505Z,67.23
2023-03-03T20:27:08.825Z,69.10
2023-03-03T20:29:54.269Z,64.33
2023-03-03T20:32:44.660Z,93.40
2023-03-03T20:35:53.389Z,67.33
2023-03-03T20:38:40.204Z,78.60
2023-03-03T20:42:05.739Z,79.60
2023-03-03T20:44:49.440Z,74.17
2023-03-03T20:47:42.585Z,66.90
2023-03-03T20:50:15.568Z,80.20
2023-03-03T20:53:07.658Z,81.00
2023-03-03T20:56:03.712Z,65.03
2023-03-03T20:58:54.744Z,68.00
2023-03-03T21:01:29.485Z,63.93
2023-03-03T21:04:23.168Z,66.73
2023-03-03T21:06:55.520Z,72.80
2023-03-03T21:09:35.103Z,63.60
2023-03-03T21:12:27.548Z,62.93
2023-03-03T21:15:35.881Z,74.53
2023-03-03T21:18:26.714Z,64.83
2023-03-03T21:20:59.601Z,69.57
2023-03-03T21:23:31.368Z,76.80
2023-03-03T21:26:03.397Z,75.87
2023-03-03T21:28:35.159Z,71.17
2023-03-03T21:31:08.785Z,72.77
2023-03-03T21:33:56.821Z,72.50
2023-03-03T21:36:37.616Z,72.80
2023-03-03T21:39:23.167Z,74.40
2023-03-03T21:42:06.456Z,65.80
2023-03-03T21:44:49.799Z,64.20
2023-03-03T21:47:23.953Z,72.43
2023-03-03T21:49:55.655Z,74.80
2023-03-03T21:52:27.388Z,71.50
2023-03-03T21:54:59.090Z,71.87
2023-03-03T21:57:31.131Z,68.00
2023-03-03T22:00:05.607Z,70.27
2023-03-03T22:02:37.601Z,83.10
2023-03-03T22:05:09.867Z,76.20
2023-03-03T22:07:41.554Z,77.47
2023-03-03T22:10:13.214Z,71.67
2023-03-03T22:12:44.948Z,81.10
2023-03-03T22:15:16.761Z,71.37
2023-03-03T22:17:48.481Z,61.57
2023-03-03T22:20:20.550Z,77.43
2023-03-03T22:22:52.276Z,75.03
2023-03-03T22:25:24.029Z,74.33
2023-03-03T22:27:55.766Z,66.80
2023-03-03T22:30:27.582Z,62.43
2023-03-03T22:32:59.270Z,79.23
2023-03-03T22:35:31.225Z,70.13
2023-03-03T22:38:03.470Z,66.27
2023-03-03T22:40:35.194Z,67.90
2023-03-03T22:43:07.059Z,75.03
2023-03-03T22:45:38.825Z,60.87
2023-03-03T22:48:11.357Z,66.57
2023-03-03T22:50:45.180Z,83.63
2023-03-03T22:53:16.951Z,84.73
2023-03-03T22:55:48.641Z,71.07
2023-03-03T22:58:21.179Z,68.57
2023-03-03T23:00:54.135Z,74.97
2023-03-03T23:03:25.933Z,70.63
2023-03-03T23:05:57.648Z,75.90
2023-03-03T23:08:29.366Z,72.23
2023-03-03T23:11:01.026Z,75.90
2023-03-03T23:13:32.913Z,73.40
2023-03-03T23:16:05.164Z,89.03
2023-03-03T23:18:36.947Z,67.87
2023-03-03T23:21:08.662Z,86.47
2023-03-03T23:23:40.344Z,81.63
2023-03-03T23:26:12.329Z,78.83
2023-03-03T23:28:44.312Z,60.30
2023-03-03T23:31:16.060Z,83.47
2023-03-03T23:33:47.977Z,90.90
2023-03-03T23:36:19.693Z,72.77
2023-03-03T23:38:51.367Z,92.80
2023-03-03T23:41:23.026Z,68.83
2023-03-03T23:43:54.699Z,86.95
2023-03-03T23:46:26.424Z,69.33
2023-03-03T23:48:59.865Z,74.33
2023-03-03T23:51:32.066Z,66.00
2023-03-03T23:54:03.844Z,69.87
2023-03-03T23:56:35.594Z,70.87
2023-03-03T23:59:07.268Z,77.30
